Time;durP1;ratioP1;P1;durP2;ratioP2;P2;SDS_P1;SDS_P2;PMS_P1;PMS_P2;Temp;Humidity;BMP_temperature;BMP_pressure;BME280_temperature;BME280_humidity;BME280_pressure;Samples;Min_cycle;Max_cycle;Signal;HPM_P1;HPM_P2
2022/01/16 00:00:18;;;;;;;;;;;;;;;14.32;58.47;101981.97;1058049;28;731;-61
2022/01/16 00:01:23;;;;;;;;;;;;;;;14.32;58.72;101973.06;1058837;28;629;-61
2022/01/16 00:04:13;;;;;;;;;;;;;;;14.30;58.91;101966.94;1054957;28;826;-61
2022/01/16 00:05:03;;;;;;;;;;;;;;;14.28;59.04;101969.72;1054599;28;665;-61
2022/01/16 00:05:54;;;;;;;;;;;;;;;14.28;58.18;101958.13;1054564;28;634;-61
2022/01/16 00:06:45;;;;;;;;;;;;;;;14.27;58.34;101967.13;1054358;28;789;-62
2022/01/16 00:07:35;;;;;;;;;;;;;;;14.27;59.31;101965.31;1053917;28;683;-60
2022/01/16 00:08:26;;;;;;;;;;;;;;;14.29;58.47;101965.22;1054446;28;728;-60
2022/01/16 00:09:16;;;;;;;;;;;;;;;14.27;58.95;101956.41;1054604;28;606;-61
2022/01/16 00:10:06;;;;;;;;;;;;;;;14.27;58.15;101951.03;1054485;28;614;-61
2022/01/16 00:10:59;;;;;;;;;;;;;;;14.25;58.80;101949.31;1054515;28;843;-61
2022/01/16 00:11:50;;;;;;;;;;;;;;;14.27;58.30;101954.59;1053844;28;1204;-62
2022/01/16 00:12:43;;;;;;;;;;;;;;;14.29;58.24;101962.53;1054998;28;851;-62
2022/01/16 00:13:34;;;;;;;;;;;;;;;14.28;58.85;101975.09;1054578;28;648;-62
2022/01/16 00:14:25;;;;;;;;;;;;;;;14.29;58.86;101970.59;1054478;28;680;-62
2022/01/16 00:15:15;;;;;;;;;;;;;;;14.25;58.58;101968.09;1053950;28;794;-63
2022/01/16 00:16:06;;;;;;;;;;;;;;;14.26;58.89;101971.63;1054574;28;652;-62
2022/01/16 00:16:56;;;;;;;;;;;;;;;14.25;58.62;101962.72;1058166;28;1252;-61
2022/01/16 00:18:07;;;;;;;;;;;;;;;14.29;58.25;101973.25;1058053;28;754;-62
2022/01/16 00:18:58;;;;;;;;;;;;;;;14.28;58.35;101963.50;1056996;28;1923;-62
2022/01/16 00:19:48;;;;;;;;;;;;;;;14.27;58.22;101961.75;1055040;28;668;-61
2022/01/16 00:20:39;;;;;;;;;;;;;;;14.29;58.56;101954.50;1055019;28;688;-62
2022/01/16 00:21:30;;;;;;;;;;;;;;;14.27;58.35;101959.94;1055009;28;882;-62
2022/01/16 00:22:25;;;;;;;;;;;;;;;14.25;58.67;101960.03;1054994;28;727;-62
2022/01/16 00:23:23;;;;;;;;;;;;;;;14.25;58.59;101954.69;1053879;28;787;-62
2022/01/16 00:24:14;;;;;;;;;;;;;;;14.28;58.62;101950.09;1054987;28;673;-62
2022/01/16 00:25:04;;;;;;;;;;;;;;;14.24;58.27;101947.59;1055122;28;749;-62
2022/01/16 00:25:55;;;;;;;;;;;;;;;14.25;58.90;101948.44;1055029;28;652;-62
2022/01/16 00:26:45;;;;;;;;;;;;;;;14.25;58.51;101949.31;1055099;28;649;-62
2022/01/16 00:27:35;;;;;;;;;;;;;;;14.24;58.25;101955.63;1054950;28;860;-62
2022/01/16 00:28:26;;;;;;;;;;;;;;;14.24;58.81;101955.63;1055044;28;645;-62
2022/01/16 00:29:16;;;;;;;;;;;;;;;14.25;58.81;101953.81;1055014;28;712;-62
2022/01/16 00:30:07;;;;;;;;;;;;;;;14.23;58.66;101953.03;1054981;28;633;-62
2022/01/16 00:30:57;;;;;;;;;;;;;;;14.23;58.47;101940.50;1055151;28;695;-62
2022/01/16 00:31:47;;;;;;;;;;;;;;;14.24;58.66;101939.53;1054825;28;1369;-62
2022/01/16 00:32:38;;;;;;;;;;;;;;;14.24;58.58;101936.88;1054966;28;613;-62
2022/01/16 00:33:28;;;;;;;;;;;;;;;14.24;58.75;101934.19;1055166;28;600;-62
2022/01/16 00:34:19;;;;;;;;;;;;;;;14.22;58.26;101937.91;1054116;28;727;-61
2022/01/16 00:35:11;;;;;;;;;;;;;;;14.21;58.44;101931.69;1054522;28;664;-62
2022/01/16 00:36:01;;;;;;;;;;;;;;;14.21;58.74;101931.69;1055050;28;932;-61
2022/01/16 00:36:51;;;;;;;;;;;;;;;14.21;58.69;101934.38;1054968;28;625;-62
2022/01/16 00:37:42;;;;;;;;;;;;;;;14.22;58.01;101932.56;1054916;28;672;-62
2022/01/16 00:38:33;;;;;;;;;;;;;;;14.20;58.86;101940.69;1054944;28;711;-61
2022/01/16 00:39:23;;;;;;;;;;;;;;;14.23;58.55;101936.97;1055088;28;758;-61
2022/01/16 00:40:13;;;;;;;;;;;;;;;14.22;58.38;101937.91;1054797;28;847;-62
2022/01/16 00:41:04;;;;;;;;;;;;;;;14.21;58.46;101942.41;1054879;28;747;-62
2022/01/16 00:41:54;;;;;;;;;;;;;;;14.20;58.68;101943.38;1054378;28;870;-62
2022/01/16 00:42:45;;;;;;;;;;;;;;;14.22;57.96;101944.13;1055026;28;680;-62
2022/01/16 00:43:35;;;;;;;;;;;;;;;14.23;58.49;101948.53;1053629;28;1901;-62
2022/01/16 00:44:25;;;;;;;;;;;;;;;14.24;57.86;101947.59;1054841;28;867;-62
2022/01/16 00:45:16;;;;;;;;;;;;;;;14.23;58.55;101953.91;1055045;28;637;-62
2022/01/16 00:46:06;;;;;;;;;;;;;;;14.23;57.95;101945.88;1056945;28;1603;-61
2022/01/16 00:46:57;;;;;;;;;;;;;;;14.23;59.02;101948.53;1058994;27;923;-61
2022/01/16 00:47:47;;;;;;;;;;;;;;;14.22;57.75;101954.88;1059245;27;581;-62
2022/01/16 00:48:37;;;;;;;;;;;;;;;14.23;58.15;101956.59;1059124;27;864;-62
2022/01/16 00:49:28;;;;;;;;;;;;;;;14.22;58.16;101949.50;1053136;28;1657;-61
2022/01/16 00:50:18;;;;;;;;;;;;;;;14.21;58.13;101958.50;1054925;28;1944;-62
2022/01/16 00:51:09;;;;;;;;;;;;;;;14.21;58.71;101963.00;1053898;28;700;-62
2022/01/16 00:51:59;;;;;;;;;;;;;;;14.19;58.38;101955.06;1055050;28;672;-62
2022/01/16 00:52:50;;;;;;;;;;;;;;;14.18;58.28;101941.75;1054799;28;704;-61
2022/01/16 00:53:42;;;;;;;;;;;;;;;14.19;58.21;101936.28;1049798;28;727;-62
2022/01/16 00:54:32;;;;;;;;;;;;;;;14.20;58.46;101918.38;1049785;28;862;-62
2022/01/16 00:55:23;;;;;;;;;;;;;;;14.18;59.02;101920.28;1054946;28;647;-62
2022/01/16 00:56:13;;;;;;;;;;;;;;;14.17;58.05;101931.97;1055014;28;669;-62
2022/01/16 00:57:04;;;;;;;;;;;;;;;14.18;58.36;101931.03;1053910;28;928;-62
2022/01/16 00:57:54;;;;;;;;;;;;;;;14.17;58.84;101935.50;1055076;28;710;-62
2022/01/16 00:58:44;;;;;;;;;;;;;;;14.18;57.96;101937.25;1054861;28;795;-62
2022/01/16 00:59:35;;;;;;;;;;;;;;;14.16;58.58;101930.25;1054817;28;834;-63
2022/01/16 01:00:27;;;;;;;;;;;;;;;14.16;58.17;101928.44;1054881;28;860;-63
2022/01/16 01:01:18;;;;;;;;;;;;;;;14.17;59.00;101919.44;1054951;28;787;-63
2022/01/16 01:02:08;;;;;;;;;;;;;;;14.16;57.88;101909.66;1049008;28;629;-63
2022/01/16 01:02:59;;;;;;;;;;;;;;;14.19;58.13;101898.75;1052976;28;841;-63
2022/01/16 01:03:49;;;;;;;;;;;;;;;14.17;57.79;101891.75;1054104;28;2378;-62
2022/01/16 01:04:41;;;;;;;;;;;;;;;14.16;58.27;101890.03;1054680;28;772;-62
2022/01/16 01:05:32;;;;;;;;;;;;;;;14.15;58.39;101891.03;1049217;28;671;-62
2022/01/16 01:06:22;;;;;;;;;;;;;;;14.15;58.62;101881.13;1051340;28;1890;-62
2022/01/16 01:07:13;;;;;;;;;;;;;;;14.14;58.13;101884.81;1057823;28;860;-62
2022/01/16 01:08:04;;;;;;;;;;;;;;;14.14;58.98;101883.94;1057609;28;1775;-62
2022/01/16 01:08:55;;;;;;;;;;;;;;;14.13;58.29;101880.41;1053693;28;845;-62
2022/01/16 01:09:45;;;;;;;;;;;;;;;14.15;58.64;101899.06;1054273;28;641;-62
2022/01/16 01:10:38;;;;;;;;;;;;;;;14.15;59.00;101899.06;1054335;28;832;-62
2022/01/16 01:11:30;;;;;;;;;;;;;;;14.14;58.17;101889.31;1054172;28;962;-62
2022/01/16 01:12:28;;;;;;;;;;;;;;;14.16;58.46;101887.34;1054235;28;688;-62
2022/01/16 01:13:24;;;;;;;;;;;;;;;14.15;58.36;101883.81;1054208;28;833;-62
2022/01/16 01:14:27;;;;;;;;;;;;;;;14.15;58.66;101904.44;1054254;28;609;-62
2022/01/16 01:15:17;;;;;;;;;;;;;;;14.13;58.59;101909.03;1054240;28;899;-62
2022/01/16 01:16:14;;;;;;;;;;;;;;;14.14;58.21;101908.94;1054398;28;666;-62
2022/01/16 01:17:07;;;;;;;;;;;;;;;14.14;57.75;101902.69;1054089;28;1089;-61
2022/01/16 01:17:57;;;;;;;;;;;;;;;14.14;58.19;101898.22;1054308;28;684;-62
2022/01/16 01:18:48;;;;;;;;;;;;;;;14.15;58.57;101893.72;1054235;28;613;-62
2022/01/16 01:19:39;;;;;;;;;;;;;;;14.14;58.76;101903.56;1049096;28;703;-61
2022/01/16 01:20:29;;;;;;;;;;;;;;;14.12;58.75;101905.47;1050449;28;769;-62
2022/01/16 01:21:30;;;;;;;;;;;;;;;14.13;58.36;101912.56;1054833;28;625;-62
2022/01/16 01:22:21;;;;;;;;;;;;;;;14.14;58.40;101902.69;1054312;28;728;-62
2022/01/16 01:23:11;;;;;;;;;;;;;;;14.11;58.83;101898.41;1054836;28;703;-62
2022/01/16 01:24:02;;;;;;;;;;;;;;;14.13;57.74;101899.16;1054709;28;1905;-62
2022/01/16 01:24:52;;;;;;;;;;;;;;;14.11;57.98;101898.41;1054823;28;630;-62
2022/01/16 01:25:42;;;;;;;;;;;;;;;14.11;58.43;101913.63;1056554;28;1607;-62
2022/01/16 01:26:41;;;;;;;;;;;;;;;14.11;58.02;101911.78;1057863;28;720;-62
2022/01/16 01:27:33;;;;;;;;;;;;;;;14.12;57.98;101904.63;1057431;28;720;-62
2022/01/16 01:28:24;;;;;;;;;;;;;;;14.11;58.33;101894.84;1057348;28;669;-62
2022/01/16 01:29:18;;;;;;;;;;;;;;;14.11;58.23;101895.72;1057805;28;638;-61
2022/01/16 01:30:09;;;;;;;;;;;;;;;14.11;58.58;101898.41;1057027;28;783;-62
2022/01/16 01:31:00;;;;;;;;;;;;;;;14.09;58.80;101911.03;1057358;28;673;-62
2022/01/16 01:31:52;;;;;;;;;;;;;;;14.10;57.84;101915.44;1057707;28;916;-62
2022/01/16 01:32:42;;;;;;;;;;;;;;;14.10;58.57;101918.13;1057197;28;681;-62
2022/01/16 01:33:33;;;;;;;;;;;;;;;14.09;58.77;101929.78;1057890;28;822;-62
2022/01/16 01:34:24;;;;;;;;;;;;;;;14.09;59.00;101932.47;1057659;28;917;-62
2022/01/16 01:35:14;;;;;;;;;;;;;;;14.09;58.91;101929.78;1057285;28;677;-62
2022/01/16 01:36:05;;;;;;;;;;;;;;;14.08;58.53;101930.75;1057975;28;766;-62
2022/01/16 01:36:55;;;;;;;;;;;;;;;14.09;58.33;101931.59;1057786;28;673;-62
2022/01/16 01:37:46;;;;;;;;;;;;;;;14.10;58.54;101936.00;1057823;28;653;-62
2022/01/16 01:38:36;;;;;;;;;;;;;;;14.08;57.98;101933.44;1057542;28;924;-62
2022/01/16 01:39:26;;;;;;;;;;;;;;;14.09;58.49;101924.44;1057828;28;684;-62
2022/01/16 01:40:17;;;;;;;;;;;;;;;14.08;57.64;101906.63;1057900;28;781;-62
2022/01/16 01:41:07;;;;;;;;;;;;;;;14.09;58.58;101892.25;1057519;28;1705;-62
2022/01/16 01:42:06;;;;;;;;;;;;;;;14.11;58.00;101881.44;1057817;28;878;-62
2022/01/16 01:51:04;;;;;;;;;;;;;;;14.08;58.23;101834.25;1057599;28;757;-62
2022/01/16 01:51:54;;;;;;;;;;;;;;;14.08;57.91;101836.94;1058349;28;664;-62
2022/01/16 01:52:45;;;;;;;;;;;;;;;14.08;57.68;101833.38;1057496;28;662;-62
2022/01/16 01:53:35;;;;;;;;;;;;;;;14.07;58.52;101832.53;1057573;28;694;-62
2022/01/16 01:54:26;;;;;;;;;;;;;;;14.07;58.13;101843.25;1057697;28;691;-62
2022/01/16 01:55:16;;;;;;;;;;;;;;;14.05;58.47;101850.53;1058391;28;862;-62
2022/01/16 01:56:06;;;;;;;;;;;;;;;14.06;57.87;101865.66;1057198;28;671;-62
2022/01/16 01:56:58;;;;;;;;;;;;;;;14.07;57.92;101870.06;1057329;28;708;-62
2022/01/16 01:57:48;;;;;;;;;;;;;;;14.06;57.88;101873.69;1056945;28;1866;-61
2022/01/16 01:58:39;;;;;;;;;;;;;;;14.06;58.43;101873.69;1053469;28;641;-62
2022/01/16 01:59:29;;;;;;;;;;;;;;;14.07;58.22;101878.09;1054618;28;1695;-62
2022/01/16 02:00:19;;;;;;;;;;;;;;;14.06;57.85;101873.69;1056343;28;708;-62
2022/01/16 02:01:10;;;;;;;;;;;;;;;14.07;57.86;101871.88;1052178;28;888;-62
2022/01/16 02:02:00;;;;;;;;;;;;;;;14.06;57.69;101884.41;1053701;28;1323;-62
2022/01/16 02:03:11;;;;;;;;;;;;;;;14.06;57.67;101892.44;1057608;28;621;-62
2022/01/16 02:04:02;;;;;;;;;;;;;;;14.07;57.58;101890.63;1056577;28;1910;-62
2022/01/16 02:04:52;;;;;;;;;;;;;;;14.08;58.01;101887.84;1058184;28;646;-62
2022/01/16 02:05:43;;;;;;;;;;;;;;;14.06;57.35;101891.59;1056595;28;867;-62
2022/01/16 02:06:33;;;;;;;;;;;;;;;14.04;58.02;101883.66;1056975;28;609;-62
2022/01/16 02:07:24;;;;;;;;;;;;;;;14.05;57.89;101893.41;1057836;28;702;-62
2022/01/16 02:08:14;;;;;;;;;;;;;;;14.05;58.43;101893.41;1057091;28;749;-62
2022/01/16 02:09:06;;;;;;;;;;;;;;;14.05;57.85;101900.59;1057033;28;700;-62
2022/01/16 02:09:56;;;;;;;;;;;;;;;14.04;58.17;101894.38;1057851;28;912;-61
2022/01/16 02:10:46;;;;;;;;;;;;;;;14.03;58.60;101898.00;1057027;28;634;-61
2022/01/16 02:11:37;;;;;;;;;;;;;;;14.05;57.65;101905.94;1057146;28;822;-60
2022/01/16 02:12:29;;;;;;;;;;;;;;;14.05;57.63;101914.84;1057750;28;685;-60
2022/01/16 02:13:30;;;;;;;;;;;;;;;14.04;58.35;101917.63;1056561;28;692;-61
2022/01/16 02:14:53;;;;;;;;;;;;;;;14.05;58.50;101908.63;1057730;28;744;-61
2022/01/16 02:28:21;;;;;;;;;;;;;;;14.03;57.88;101913.22;1054044;28;613;-61
2022/01/16 02:31:23;;;;;;;;;;;;;;;14.01;57.85;101924.03;1054074;28;628;-61
2022/01/16 02:32:40;;;;;;;;;;;;;;;14.00;57.97;101927.66;1053065;28;699;-63
2022/01/16 02:34:35;;;;;;;;;;;;;;;14.01;58.23;101931.22;1053348;28;758;-63
2022/01/16 02:35:26;;;;;;;;;;;;;;;14.00;57.88;101935.72;1052856;28;625;-63
2022/01/16 02:36:27;;;;;;;;;;;;;;;14.02;58.18;101922.22;1049912;28;648;-63
2022/01/16 02:37:19;;;;;;;;;;;;;;;14.02;58.10;101925.75;1049329;28;644;-63
2022/01/16 02:38:09;;;;;;;;;;;;;;;14.02;57.79;101925.75;1049923;28;672;-63
2022/01/16 02:39:00;;;;;;;;;;;;;;;14.01;57.45;101928.53;1052917;28;811;-63
2022/01/16 02:39:52;;;;;;;;;;;;;;;14.01;58.32;101923.16;1054498;28;704;-63
2022/01/16 02:40:44;;;;;;;;;;;;;;;14.02;57.47;101931.13;1053317;28;724;-63
2022/01/16 02:41:35;;;;;;;;;;;;;;;13.99;57.82;101925.94;1052915;28;673;-62
2022/01/16 02:42:28;;;;;;;;;;;;;;;14.00;57.28;101932.16;1054051;28;676;-60
2022/01/16 02:43:22;;;;;;;;;;;;;;;13.99;58.21;101920.59;1052701;28;928;-61
2022/01/16 02:44:22;;;;;;;;;;;;;;;13.99;57.61;101914.34;1054087;28;770;-61
2022/01/16 02:45:17;;;;;;;;;;;;;;;14.00;57.84;101924.13;1049997;28;1889;-61
2022/01/16 02:47:06;;;;;;;;;;;;;;;13.97;58.22;101909.13;1057671;28;1065;-61
2022/01/16 02:47:57;;;;;;;;;;;;;;;13.98;57.29;101918.00;1057155;28;660;-60
2022/01/16 02:48:50;;;;;;;;;;;;;;;13.98;58.12;101916.19;1057260;28;631;-62
2022/01/16 02:49:41;;;;;;;;;;;;;;;13.97;57.59;101911.81;1056770;28;1188;-61
2022/01/16 02:50:31;;;;;;;;;;;;;;;13.98;57.61;101913.50;1057021;28;742;-60
2022/01/16 02:51:22;;;;;;;;;;;;;;;13.96;58.29;101912.75;1056978;28;981;-61
2022/01/16 02:52:12;;;;;;;;;;;;;;;13.95;58.31;101908.34;1057422;28;700;-61
2022/01/16 02:53:11;;;;;;;;;;;;;;;13.96;57.71;101909.22;1056906;28;629;-61
2022/01/16 02:54:01;;;;;;;;;;;;;;;13.98;58.01;101908.13;1057077;28;778;-61
2022/01/16 02:54:54;;;;;;;;;;;;;;;13.98;57.52;101891.19;1057075;28;668;-61
2022/01/16 02:55:44;;;;;;;;;;;;;;;13.97;57.86;101879.66;1054312;28;2110;-61
2022/01/16 02:56:35;;;;;;;;;;;;;;;13.96;57.66;101890.47;1057678;28;653;-62
2022/01/16 02:57:26;;;;;;;;;;;;;;;13.96;58.17;101887.78;1057668;28;684;-61
2022/01/16 02:58:16;;;;;;;;;;;;;;;13.94;57.90;101887.88;1058615;28;676;-61
2022/01/16 02:59:07;;;;;;;;;;;;;;;13.95;57.62;101886.06;1057852;28;622;-61
2022/01/16 02:59:58;;;;;;;;;;;;;;;13.95;57.45;101897.63;1058491;28;836;-61
2022/01/16 03:00:48;;;;;;;;;;;;;;;13.95;58.17;101894.94;1058262;28;1208;-61
2022/01/16 03:01:39;;;;;;;;;;;;;;;13.96;57.80;101888.63;1058329;28;907;-62
2022/01/16 03:02:29;;;;;;;;;;;;;;;13.96;57.64;101891.31;1058458;28;688;-62
2022/01/16 03:03:20;;;;;;;;;;;;;;;13.95;58.16;101889.59;1056770;28;1822;-61
2022/01/16 03:04:10;;;;;;;;;;;;;;;13.95;57.97;101886.91;1054233;28;876;-61
2022/01/16 03:05:00;;;;;;;;;;;;;;;13.94;57.08;101879.84;1050360;28;645;-60
2022/01/16 03:05:51;;;;;;;;;;;;;;;13.94;57.36;101874.47;1049241;28;723;-60
2022/01/16 03:06:41;;;;;;;;;;;;;;;13.92;57.69;101871.03;1049637;28;653;-61
2022/01/16 03:07:32;;;;;;;;;;;;;;;13.93;57.74;101878.09;1055322;28;878;-61
2022/01/16 03:08:22;;;;;;;;;;;;;;;13.93;57.55;101875.44;1054691;28;955;-62
2022/01/16 03:09:13;;;;;;;;;;;;;;;13.94;57.50;101868.25;1054899;28;664;-62
2022/01/16 03:11:50;;;;;;;;;;;;;;;13.93;58.04;101871.88;1054636;28;676;-61
2022/01/16 03:12:40;;;;;;;;;;;;;;;13.91;58.16;101871.97;1054114;28;850;-61
2022/01/16 03:13:32;;;;;;;;;;;;;;;13.90;57.58;101868.44;1054770;28;657;-62
2022/01/16 03:14:23;;;;;;;;;;;;;;;13.90;57.27;101865.75;1054197;28;942;-61
2022/01/16 03:15:13;;;;;;;;;;;;;;;13.91;57.63;101869.31;1054101;28;692;-61
2022/01/16 03:16:04;;;;;;;;;;;;;;;13.92;57.84;101871.03;1054802;28;925;-61
2022/01/16 03:16:54;;;;;;;;;;;;;;;13.92;57.69;101871.03;1054659;28;1014;-61
2022/01/16 03:22:19;;;;;;;;;;;;;;;13.89;57.42;101858.66;1054775;28;1974;-61
2022/01/16 03:23:10;;;;;;;;;;;;;;;13.91;57.34;101869.31;1055346;28;711;-61
2022/01/16 03:24:01;;;;;;;;;;;;;;;13.89;57.74;101871.22;1055252;28;1889;-62
2022/01/16 03:24:51;;;;;;;;;;;;;;;13.88;57.29;101864.97;1054550;28;726;-62
2022/01/16 03:25:41;;;;;;;;;;;;;;;13.89;57.78;101863.16;1054045;28;837;-62
2022/01/16 03:26:32;;;;;;;;;;;;;;;13.89;57.87;101865.84;1055374;28;653;-62
2022/01/16 03:27:22;;;;;;;;;;;;;;;13.88;57.72;101862.31;1055259;28;614;-63
2022/01/16 03:28:13;;;;;;;;;;;;;;;13.90;57.79;101859.53;1055298;28;645;-63
2022/01/16 03:29:03;;;;;;;;;;;;;;;13.89;57.59;101855.13;1055207;28;771;-62
2022/01/16 03:29:57;;;;;;;;;;;;;;;13.89;58.02;101865.84;1055355;28;692;-62
2022/01/16 03:30:47;;;;;;;;;;;;;;;13.88;57.74;101856.94;1054712;28;689;-63
2022/01/16 03:31:38;;;;;;;;;;;;;;;13.90;57.90;101852.34;1055267;28;613;-62
2022/01/16 03:32:28;;;;;;;;;;;;;;;13.90;57.34;101854.19;1055299;28;722;-63
2022/01/16 03:33:20;;;;;;;;;;;;;;;13.89;57.80;101845.28;1053992;28;738;-62
2022/01/16 03:34:10;;;;;;;;;;;;;;;13.90;57.49;101847.00;1053780;28;618;-62
2022/01/16 03:35:01;;;;;;;;;;;;;;;13.89;58.07;101853.31;1054051;28;941;-61
2022/01/16 03:35:52;;;;;;;;;;;;;;;13.89;58.36;101852.44;1055176;28;641;-62
2022/01/16 03:36:43;;;;;;;;;;;;;;;13.86;57.75;101853.50;1056028;28;1470;-61
2022/01/16 03:37:33;;;;;;;;;;;;;;;13.87;58.26;101844.50;1058555;28;1354;-61
2022/01/16 03:38:23;;;;;;;;;;;;;;;13.86;58.23;101845.47;1057502;28;1547;-62
2022/01/16 03:39:14;;;;;;;;;;;;;;;13.87;57.50;101836.47;1057497;28;1485;-62
2022/01/16 03:40:07;;;;;;;;;;;;;;;13.85;57.39;101841.06;1055786;28;1279;-62
2022/01/16 03:40:57;;;;;;;;;;;;;;;13.86;57.94;101834.75;1058079;28;1247;-61
2022/01/16 03:41:47;;;;;;;;;;;;;;;13.84;57.82;101828.63;1053811;28;708;-62
2022/01/16 03:42:38;;;;;;;;;;;;;;;13.87;57.65;101836.47;1055056;28;810;-62
2022/01/16 03:43:28;;;;;;;;;;;;;;;13.87;58.25;101823.06;1054537;28;713;-62
2022/01/16 03:44:19;;;;;;;;;;;;;;;13.89;57.32;101833.69;1054736;28;781;-62
2022/01/16 03:45:09;;;;;;;;;;;;;;;13.87;57.26;101825.75;1055208;28;774;-63
2022/01/16 03:46:00;;;;;;;;;;;;;;;13.88;57.95;101829.28;1056231;28;1609;-62
2022/01/16 03:46:50;;;;;;;;;;;;;;;13.86;58.20;101829.38;1057643;28;1052;-62
2022/01/16 03:47:40;;;;;;;;;;;;;;;13.87;57.49;101832.94;1058161;28;819;-62
2022/01/16 03:48:31;;;;;;;;;;;;;;;13.85;58.01;101827.66;1058268;28;746;-62
2022/01/16 03:49:21;;;;;;;;;;;;;;;13.87;57.93;101824.88;1058742;28;1147;-62
2022/01/16 03:50:12;;;;;;;;;;;;;;;13.86;58.10;101829.38;1058200;28;803;-62
2022/01/16 03:51:02;;;;;;;;;;;;;;;13.86;58.01;101828.53;1058394;28;706;-61
2022/01/16 03:51:52;;;;;;;;;;;;;;;13.86;58.07;101840.09;1058158;28;785;-61
2022/01/16 03:52:43;;;;;;;;;;;;;;;13.88;57.90;101840.00;1058256;28;664;-62
2022/01/16 03:53:33;;;;;;;;;;;;;;;13.84;57.39;101830.44;1058786;28;781;-61
2022/01/16 03:54:24;;;;;;;;;;;;;;;13.83;58.25;101828.72;1054458;28;753;-62
2022/01/16 03:55:14;;;;;;;;;;;;;;;13.83;58.40;101832.25;1057191;28;1505;-63
2022/01/16 03:56:05;;;;;;;;;;;;;;;13.83;57.79;101836.75;1055022;28;1550;-63
2022/01/16 03:56:55;;;;;;;;;;;;;;;13.84;58.18;101830.44;1055827;28;1632;-63
2022/01/16 03:57:45;;;;;;;;;;;;;;;13.87;57.68;101831.09;1059241;27;1598;-63
2022/01/16 03:58:36;;;;;;;;;;;;;;;13.86;57.69;101833.88;1056660;28;1477;-62
2022/01/16 03:59:26;;;;;;;;;;;;;;;13.85;58.31;101827.66;1057663;28;1496;-62
2022/01/16 04:00:17;;;;;;;;;;;;;;;13.86;58.33;101837.41;1056198;28;1540;-63
2022/01/16 04:01:07;;;;;;;;;;;;;;;13.86;58.19;101831.19;1055508;28;1471;-63
2022/01/16 04:01:58;;;;;;;;;;;;;;;13.83;58.19;101839.44;1057640;28;1343;-62
2022/01/16 04:02:48;;;;;;;;;;;;;;;13.84;58.36;101831.28;1056720;28;1457;-63
2022/01/16 04:03:38;;;;;;;;;;;;;;;13.84;58.08;101835.78;1056694;28;1567;-63
2022/01/16 04:04:29;;;;;;;;;;;;;;;13.83;58.58;101834.06;1056743;28;1417;-63
2022/01/16 04:05:19;;;;;;;;;;;;;;;13.82;58.11;101833.22;1056974;28;1611;-63
2022/01/16 04:06:10;;;;;;;;;;;;;;;13.83;58.72;101834.06;1055713;28;1553;-62
2022/01/16 04:07:01;;;;;;;;;;;;;;;13.82;58.43;101832.34;1057784;28;1543;-61
2022/01/16 04:07:51;;;;;;;;;;;;;;;13.84;59.06;101835.78;1058279;27;1437;-61
2022/01/16 04:08:41;;;;;;;;;;;;;;;13.86;58.76;101826.72;1057777;28;1543;-61
2022/01/16 04:09:32;;;;;;;;;;;;;;;13.84;59.39;101833.97;1057491;28;643;-61
2022/01/16 04:10:22;;;;;;;;;;;;;;;13.87;59.11;101824.88;1058216;28;739;-62
2022/01/16 04:11:13;;;;;;;;;;;;;;;13.87;58.53;101830.25;1058202;28;625;-61
2022/01/16 04:12:03;;;;;;;;;;;;;;;13.88;59.43;101831.97;1058213;28;684;-60
2022/01/16 04:12:54;;;;;;;;;;;;;;;13.88;59.16;101837.34;1057452;28;816;-60
2022/01/16 04:13:53;;;;;;;;;;;;;;;13.89;59.54;101836.38;1058145;28;630;-60
2022/01/16 04:15:36;;;;;;;;;;;;;;;13.86;58.78;101831.19;1059359;27;633;-60
2022/01/16 04:16:27;;;;;;;;;;;;;;;13.85;58.82;101824.13;1058040;28;1861;-60
2022/01/16 04:17:17;;;;;;;;;;;;;;;13.83;59.21;101828.72;1054648;28;1664;-60
2022/01/16 04:18:08;;;;;;;;;;;;;;;13.84;59.59;101825.94;1054460;28;661;-61
2022/01/16 04:18:58;;;;;;;;;;;;;;;13.84;59.46;101827.75;1053843;28;934;-61
2022/01/16 04:19:49;;;;;;;;;;;;;;;13.83;59.46;101828.72;1054375;28;773;-61
2022/01/16 04:20:39;;;;;;;;;;;;;;;13.85;59.42;101829.47;1054492;28;664;-60
2022/01/16 04:21:29;;;;;;;;;;;;;;;13.84;58.93;101825.94;1053761;28;856;-61
2022/01/16 04:22:20;;;;;;;;;;;;;;;13.85;59.02;101832.16;1054555;28;700;-61
2022/01/16 04:23:10;;;;;;;;;;;;;;;13.85;59.35;101832.16;1054430;28;723;-61
2022/01/16 04:24:01;;;;;;;;;;;;;;;13.85;59.72;101832.16;1054467;28;1960;-62
2022/01/16 04:24:51;;;;;;;;;;;;;;;13.82;59.03;101822.50;1054454;28;1858;-62
2022/01/16 04:25:41;;;;;;;;;;;;;;;13.82;59.49;101821.63;1057867;28;656;-62
2022/01/16 04:26:32;;;;;;;;;;;;;;;13.82;59.82;101821.63;1058099;28;757;-62
2022/01/16 04:27:22;;;;;;;;;;;;;;;13.82;59.62;101824.31;1057671;28;775;-62
2022/01/16 04:28:13;;;;;;;;;;;;;;;13.83;59.07;101818.84;1057580;28;622;-62
2022/01/16 04:29:03;;;;;;;;;;;;;;;13.83;59.36;101818.00;1057606;28;628;-61
2022/01/16 04:29:54;;;;;;;;;;;;;;;13.81;58.94;101826.13;1057854;28;811;-63
2022/01/16 04:30:45;;;;;;;;;;;;;;;13.83;59.88;101826.03;1057502;28;737;-62
2022/01/16 04:31:35;;;;;;;;;;;;;;;13.84;58.86;101822.41;1056838;28;904;-63
2022/01/16 04:32:25;;;;;;;;;;;;;;;13.83;59.57;101823.34;1057372;28;653;-63
2022/01/16 04:33:16;;;;;;;;;;;;;;;13.82;59.44;101821.63;1057463;28;688;-63
2022/01/16 04:34:06;;;;;;;;;;;;;;;13.82;59.63;101818.94;1057770;28;673;-63
2022/01/16 04:34:57;;;;;;;;;;;;;;;13.83;59.75;101823.34;1057556;28;634;-63
2022/01/16 04:35:47;;;;;;;;;;;;;;;13.82;59.09;101822.50;1055629;28;1811;-63
2022/01/16 04:36:38;;;;;;;;;;;;;;;13.83;59.71;101826.03;1054597;28;1627;-63
2022/01/16 04:37:28;;;;;;;;;;;;;;;13.82;59.91;101817.13;1057051;28;665;-63
2022/01/16 04:38:18;;;;;;;;;;;;;;;13.83;59.74;101813.50;1057749;28;692;-63
2022/01/16 04:39:14;;;;;;;;;;;;;;;13.83;59.91;101813.50;1057401;28;633;-62
2022/01/16 04:40:05;;;;;;;;;;;;;;;13.81;58.95;101810.06;1056875;28;901;-63
2022/01/16 04:44:22;;;;;;;;;;;;;;;13.81;59.09;101811.88;1058611;28;706;-63
2022/01/16 04:45:13;;;;;;;;;;;;;;;13.81;59.15;101814.53;1058052;28;689;-63
2022/01/16 04:46:03;;;;;;;;;;;;;;;13.80;59.58;101818.19;1058031;28;770;-64
2022/01/16 04:46:54;;;;;;;;;;;;;;;13.81;59.76;101818.09;1057238;28;1318;-64
2022/01/16 04:47:44;;;;;;;;;;;;;;;13.80;59.38;101807.47;1057411;28;895;-63
2022/01/16 04:48:34;;;;;;;;;;;;;;;13.79;59.86;101808.44;1057957;28;847;-63
2022/01/16 04:49:25;;;;;;;;;;;;;;;13.78;59.55;101810.28;1057789;28;1443;-63
2022/01/16 04:50:15;;;;;;;;;;;;;;;13.77;59.40;101807.69;1057983;28;855;-64
2022/01/16 04:51:06;;;;;;;;;;;;;;;13.78;59.21;101809.41;1058015;28;617;-63
2022/01/16 04:51:56;;;;;;;;;;;;;;;13.78;59.91;101812.94;1058696;28;673;-62
2022/01/16 04:52:47;;;;;;;;;;;;;;;13.79;59.99;101813.81;1058417;28;716;-62
2022/01/16 04:53:37;;;;;;;;;;;;;;;13.79;59.11;101814.63;1057979;28;649;-62
2022/01/16 04:54:27;;;;;;;;;;;;;;;13.79;59.38;101805.78;1057395;28;1225;-61
2022/01/16 04:55:18;;;;;;;;;;;;;;;13.78;59.20;101812.09;1053821;28;621;-63
2022/01/16 04:56:08;;;;;;;;;;;;;;;13.78;59.88;101809.41;1054858;28;687;-63
2022/01/16 04:56:59;;;;;;;;;;;;;;;13.77;59.99;101816.59;1055008;28;881;-63
2022/01/16 04:57:49;;;;;;;;;;;;;;;13.78;59.18;101804.06;1054295;28;684;-63
2022/01/16 04:58:40;;;;;;;;;;;;;;;13.78;59.93;101804.91;1054365;28;754;-63
2022/01/16 04:59:30;;;;;;;;;;;;;;;13.78;59.84;101812.09;1054332;28;685;-63
2022/01/16 05:00:21;;;;;;;;;;;;;;;13.77;59.23;101810.38;1054355;28;743;-63
2022/01/16 05:01:11;;;;;;;;;;;;;;;13.77;59.85;101813.91;1055028;28;740;-63
2022/01/16 05:02:01;;;;;;;;;;;;;;;13.77;59.72;101813.91;1053449;28;908;-63
2022/01/16 05:02:52;;;;;;;;;;;;;;;13.80;59.68;101810.16;1054928;28;767;-62
2022/01/16 05:03:42;;;;;;;;;;;;;;;13.79;59.02;101806.59;1054927;28;609;-63
2022/01/16 05:04:33;;;;;;;;;;;;;;;13.76;59.22;101814.84;1054303;28;779;-63
2022/01/16 05:05:23;;;;;;;;;;;;;;;13.76;59.53;101812.19;1054960;28;610;-63
2022/01/16 05:06:14;;;;;;;;;;;;;;;13.78;59.05;101817.44;1053739;28;686;-63
2022/01/16 05:07:04;;;;;;;;;;;;;;;13.78;59.94;101817.44;1054924;28;917;-61
2022/01/16 05:07:54;;;;;;;;;;;;;;;13.76;59.98;101808.63;1054204;28;704;-60